Grande Italia — IBTF — position and weather

sailwx.info

Track history (hours):
 
Tides and Currents Weather Stations Pressure Air Temp Water Temp Dewpoint Dewpoint Depression Visibility Wind Speed Wind Dir Waves Ship Positions

Grande Italia

Last reported at 2018-Jun-20 20:31 UTC. Time now 2018-Jun-21 12:27 UTC.
Position N 37°36' E 025°54'.

Length 177 m; draft 7 m.

Type: Cargo ship. MMSI: 247039300.

Date/timePositionNaut miles runAvg speedWind from/ knotsBaromVisibWave heightAir tempDewpointWater temp
2018-Jun-20 20:31N 37°36' E 025°54'015.7
2018-Jun-20 20:30N 37°36' E 025°54'  
2018-Jun-18 13:47N 31°52' E 034°38'12 0.6
2018-Jun-17 16:45N 32°02' E 034°32'416.2
2018-Jun-17 16:30N 32°06' E 034°34'816.2
2018-Jun-17 16:01N 32°14' E 034°36'816.2
2018-Jun-17 15:31N 32°22' E 034°39'816.1
2018-Jun-17 15:00N 32°30' E 034°42'816.0
2018-Jun-17 14:30N 32°37' E 034°44'815.9
2018-Jun-17 14:00N 32°45' E 034°47'815.9
2018-Jun-17 13:30N 32°52' E 034°50'9 0.9
2018-Jun-17 03:45N 32°51' E 034°60'312.6
2018-Jun-17 03:28N 32°53' E 034°57'816.7
2018-Jun-17 02:59N 32°55' E 034°47'917.9
2018-Jun-17 02:30N 32°56' E 034°37'1717.8
2018-Jun-17 01:34N 32°59' E 034°18'117.9
2018-Jun-17 01:30N 32°60' E 034°16'1118.0
2018-Jun-17 00:52N 33°02' E 034°03'616.6
2018-Jun-17 00:30N 33°05' E 033°57'917.7
2018-Jun-17 00:00N 33°13' E 033°53'917.8
2018-Jun-16 23:30N 33°21' E 033°48'917.9
2018-Jun-16 23:00N 33°29' E 033°43'1017.7
2018-Jun-16 22:28N 33°38' E 033°38'817.6
2018-Jun-16 22:00N 33°45' E 033°34'5817.7
2018-Jun-16 18:42N 34°38' E 033°04'2 9.2
2018-Jun-16 18:31N 34°39' E 033°02'1 2.1
2018-Jun-16 18:00N 34°39' E 033°01'0 0.0
2018-Jun-16 17:28N 34°39' E 033°01'0 0.0
2018-Jun-16 16:59N 34°39' E 033°01'0 0.0
2018-Jun-16 16:27N 34°39' E 033°01'0 0.0
2018-Jun-16 16:00N 34°39' E 033°01'0 0.2
2018-Jun-16 15:30N 34°39' E 033°01'72133.0
2018-Jun-16 14:58N 35°51' E 033°11'92201.5
2018-Jun-16 14:30N 34°45' E 034°30'71113.9
2018-Jun-16 13:53N 34°33' E 033°05'513.5
2018-Jun-16 13:29N 34°31' E 032°59'714.8
2018-Jun-16 13:00N 34°32' E 032°51'714.7
2018-Jun-16 12:30N 34°33' E 032°42'714.5
2018-Jun-16 12:00N 34°34' E 032°33'714.4
2018-Jun-16 11:30N 34°35' E 032°25'714.3
2018-Jun-16 11:00N 34°36' E 032°16'714.1
2018-Jun-16 10:30N 34°37' E 032°08'714.3
2018-Jun-16 10:00N 34°39' E 031°59'714.3
2018-Jun-16 09:29N 34°40' E 031°50'6114.6
2018-Jun-16 05:18N 34°49' E 030°37'515.6
2018-Jun-16 05:00N 34°50' E 030°31'815.7
2018-Jun-16 04:30N 34°51' E 030°22'1015.6
2018-Jun-16 03:53N 34°52' E 030°10'1415.8
2018-Jun-16 03:01N 34°54' E 029°54'016.0
2018-Jun-16 03:00N 34°54' E 029°53'1316.1
2018-Jun-16 02:11N 34°56' E 029°37'316.2
2018-Jun-16 02:00N 34°56' E 029°34'816.2
2018-Jun-16 01:30N 34°58' E 029°24'816.0
2018-Jun-16 00:59N 34°60' E 029°14'816.0
2018-Jun-16 00:30N 35°01' E 029°05'816.1
2018-Jun-15 23:59N 35°02' E 028°55'21715.9
2018-Jun-15 10:22N 35°46' E 024°35'715.9
2018-Jun-15 09:54N 35°48' E 024°26'71715.6
2018-Jun-13 11:57N 44°29' E 013°41'716.2
2018-Jun-13 11:30N 44°35' E 013°35'816.2
2018-Jun-13 11:00N 44°42' E 013°29'816.1
2018-Jun-13 10:30N 44°48' E 013°23'816.2
2018-Jun-13 10:00N 44°55' E 013°17'816.2
2018-Jun-13 09:30N 45°02' E 013°10'816.1
2018-Jun-13 09:00N 45°08' E 013°04'815.8
2018-Jun-13 08:30N 45°16' E 013°02'815.3
2018-Jun-13 08:00N 45°24' E 013°04'815.7
2018-Jun-13 07:30N 45°29' E 013°12'815.5
2018-Jun-13 07:00N 45°34' E 013°21'815.2
2018-Jun-13 06:30N 45°37' E 013°31'713.1
2018-Jun-13 06:00N 45°35' E 013°40'4 7.0
2018-Jun-13 05:29N 45°34' E 013°44'0 0.0
2018-Jun-13 04:59N 45°34' E 013°44'0 0.0
2018-Jun-13 04:29N 45°34' E 013°44'0 0.0
2018-Jun-13 03:59N 45°34' E 013°44'0 0.0
2018-Jun-13 03:29N 45°34' E 013°44'0 0.0
2018-Jun-13 02:53N 45°34' E 013°44'0 0.0
2018-Jun-13 02:29N 45°34' E 013°44'0 0.0
2018-Jun-13 01:59N 45°34' E 013°44'0 0.0
2018-Jun-13 01:29N 45°34' E 013°44'0 0.0
2018-Jun-13 00:56N 45°34' E 013°44'0 0.0
2018-Jun-13 00:29N 45°34' E 013°44'0 0.0
2018-Jun-12 23:56N 45°34' E 013°44'0 0.0
2018-Jun-12 23:29N 45°34' E 013°44'0 0.0
2018-Jun-12 22:56N 45°34' E 013°44'0 0.0
2018-Jun-12 22:23N 45°34' E 013°44'0 0.0
2018-Jun-12 21:59N 45°34' E 013°44'0 0.0
2018-Jun-12 21:29N 45°34' E 013°44'0 0.0
2018-Jun-12 20:59N 45°34' E 013°44'0 0.0
2018-Jun-12 20:23N 45°34' E 013°44'0 0.0
2018-Jun-12 19:59N 45°34' E 013°44'0 0.0
2018-Jun-12 19:26N 45°34' E 013°44'0 0.0
2018-Jun-12 18:59N 45°34' E 013°44'0 0.0
2018-Jun-12 18:26N 45°34' E 013°44'0 0.0
2018-Jun-12 17:56N 45°34' E 013°44'0 0.0
2018-Jun-12 17:29N 45°34' E 013°44'0 0.0
2018-Jun-12 16:59N 45°34' E 013°44'0 0.0
2018-Jun-12 16:23N 45°34' E 013°44'0 0.0
2018-Jun-12 15:59N 45°34' E 013°44'0 0.0
2018-Jun-12 15:29N 45°34' E 013°44'0 0.0
2018-Jun-12 14:59N 45°34' E 013°44'0 0.0
2018-Jun-12 14:29N 45°34' E 013°44'0 0.0
2018-Jun-12 13:59N 45°34' E 013°44'0 0.0
2018-Jun-12 13:29N 45°34' E 013°44'0 0.0
2018-Jun-12 12:59N 45°34' E 013°44'0 0.0
2018-Jun-12 12:29N 45°34' E 013°44'0 0.0
2018-Jun-12 11:53N 45°34' E 013°44'0 0.0
2018-Jun-12 11:29N 45°34' E 013°44'0 0.0
2018-Jun-12 10:59N 45°34' E 013°44'0 0.0
2018-Jun-12 10:29N 45°34' E 013°44'0 0.0
2018-Jun-12 09:56N 45°34' E 013°44'0 0.0
2018-Jun-12 09:29N 45°34' E 013°44'0 0.0
2018-Jun-12 08:56N 45°34' E 013°44'0 0.0
2018-Jun-12 08:29N 45°34' E 013°44'0 0.0
2018-Jun-12 07:59N 45°34' E 013°44'0 0.0
2018-Jun-12 07:26N 45°34' E 013°44'0 0.0
2018-Jun-12 06:59N 45°34' E 013°44'0 0.0
2018-Jun-12 06:26N 45°34' E 013°44'0 0.0
2018-Jun-12 05:59N 45°34' E 013°44'0 0.0
2018-Jun-12 05:23N 45°34' E 013°44'0 0.0
2018-Jun-12 04:56N 45°34' E 013°44'0 0.0
2018-Jun-12 04:29N 45°34' E 013°44'0 0.0
2018-Jun-12 03:59N 45°34' E 013°44'0 0.0
2018-Jun-12 03:29N 45°34' E 013°44'0 0.0
2018-Jun-12 02:50N 45°34' E 013°44'0 0.0
2018-Jun-12 02:29N 45°34' E 013°44'0 0.0
2018-Jun-12 01:56N 45°34' E 013°44'0 0.0
2018-Jun-12 01:26N 45°34' E 013°44'0 0.0
2018-Jun-12 00:53N 45°34' E 013°44'0 0.0
2018-Jun-12 00:26N 45°34' E 013°44'0 0.0
2018-Jun-11 23:56N 45°34' E 013°44'0 0.0
2018-Jun-11 23:26N 45°34' E 013°44'0 0.0
2018-Jun-11 22:59N 45°34' E 013°44'0 0.0
2018-Jun-11 22:29N 45°34' E 013°44'0 0.0
2018-Jun-11 21:53N 45°34' E 013°44'0 0.0
2018-Jun-11 21:29N 45°34' E 013°44'0 0.0
2018-Jun-11 20:53N 45°34' E 013°44'0 0.0
2018-Jun-11 20:26N 45°34' E 013°44'0 0.0
2018-Jun-11 19:56N 45°34' E 013°44'1 1.6
2018-Jun-11 19:30N 45°34' E 013°43'3 6.2
2018-Jun-11 19:00N 45°34' E 013°39'713.5
2018-Jun-11 18:30N 45°33' E 013°29'815.3
2018-Jun-11 18:00N 45°29' E 013°21'816.1
2018-Jun-11 17:30N 45°23' E 013°13'816.2
2018-Jun-11 17:00N 45°15' E 013°12'815.7
2018-Jun-11 16:30N 45°07' E 013°12'815.9
2018-Jun-11 16:00N 45°01' E 013°04'815.9
2018-Jun-11 15:30N 44°55' E 012°56'816.0
2018-Jun-11 15:00N 44°50' E 012°49'816.2
2018-Jun-11 14:30N 44°44' E 012°41'816.0
2018-Jun-11 14:00N 44°38' E 012°33'815.9
2018-Jun-11 13:30N 44°32' E 012°26'612.0
2018-Jun-11 13:00N 44°30' E 012°18'3 5.1
2018-Jun-11 12:29N 44°28' E 012°15'1 0.1
2018-Jun-11 00:01N 44°27' E 012°15'0 0.0
2018-Jun-10 23:58N 44°27' E 012°15'  
Track history (hours):
 
Tides and Currents Weather Stations Pressure Air Temp Water Temp Dewpoint Dewpoint Depression Visibility Wind Speed Wind Dir Waves Ship Positions

Grande Italia

Last reported at 2018-Jun-20 20:31 UTC. Time now 2018-Jun-21 12:27 UTC.
Position N 37°36' E 025°54'.

Length 177 m; draft 7 m.

Type: Cargo ship. MMSI: 247039300.

Date/timePositionNaut miles runAvg speedWind from/ knotsBaromVisibWave heightAir tempDewpointWater temp
2018-Jun-20 20:31N 37°36' E 025°54'015.7
2018-Jun-20 20:30N 37°36' E 025°54'  
2018-Jun-18 13:47N 31°52' E 034°38'12 0.6
2018-Jun-17 16:45N 32°02' E 034°32'416.2
2018-Jun-17 16:30N 32°06' E 034°34'816.2
2018-Jun-17 16:01N 32°14' E 034°36'816.2
2018-Jun-17 15:31N 32°22' E 034°39'816.1
2018-Jun-17 15:00N 32°30' E 034°42'816.0
2018-Jun-17 14:30N 32°37' E 034°44'815.9
2018-Jun-17 14:00N 32°45' E 034°47'815.9
2018-Jun-17 13:30N 32°52' E 034°50'9 0.9
2018-Jun-17 03:45N 32°51' E 034°60'312.6
2018-Jun-17 03:28N 32°53' E 034°57'816.7
2018-Jun-17 02:59N 32°55' E 034°47'917.9
2018-Jun-17 02:30N 32°56' E 034°37'1717.8
2018-Jun-17 01:34N 32°59' E 034°18'117.9
2018-Jun-17 01:30N 32°60' E 034°16'1118.0
2018-Jun-17 00:52N 33°02' E 034°03'616.6
2018-Jun-17 00:30N 33°05' E 033°57'917.7
2018-Jun-17 00:00N 33°13' E 033°53'917.8
2018-Jun-16 23:30N 33°21' E 033°48'917.9
2018-Jun-16 23:00N 33°29' E 033°43'1017.7
2018-Jun-16 22:28N 33°38' E 033°38'817.6
2018-Jun-16 22:00N 33°45' E 033°34'5817.7
2018-Jun-16 18:42N 34°38' E 033°04'2 9.2
2018-Jun-16 18:31N 34°39' E 033°02'1 2.1
2018-Jun-16 18:00N 34°39' E 033°01'0 0.0
2018-Jun-16 17:28N 34°39' E 033°01'0 0.0
2018-Jun-16 16:59N 34°39' E 033°01'0 0.0
2018-Jun-16 16:27N 34°39' E 033°01'0 0.0
2018-Jun-16 16:00N 34°39' E 033°01'0 0.2
2018-Jun-16 15:30N 34°39' E 033°01'72133.0
2018-Jun-16 14:58N 35°51' E 033°11'92201.5
2018-Jun-16 14:30N 34°45' E 034°30'71113.9
2018-Jun-16 13:53N 34°33' E 033°05'513.5
2018-Jun-16 13:29N 34°31' E 032°59'714.8
2018-Jun-16 13:00N 34°32' E 032°51'714.7
2018-Jun-16 12:30N 34°33' E 032°42'714.5
2018-Jun-16 12:00N 34°34' E 032°33'714.4
2018-Jun-16 11:30N 34°35' E 032°25'714.3
2018-Jun-16 11:00N 34°36' E 032°16'714.1
2018-Jun-16 10:30N 34°37' E 032°08'714.3
2018-Jun-16 10:00N 34°39' E 031°59'714.3
2018-Jun-16 09:29N 34°40' E 031°50'6114.6
2018-Jun-16 05:18N 34°49' E 030°37'515.6
2018-Jun-16 05:00N 34°50' E 030°31'815.7
2018-Jun-16 04:30N 34°51' E 030°22'1015.6
2018-Jun-16 03:53N 34°52' E 030°10'1415.8
2018-Jun-16 03:01N 34°54' E 029°54'016.0
2018-Jun-16 03:00N 34°54' E 029°53'1316.1
2018-Jun-16 02:11N 34°56' E 029°37'316.2
2018-Jun-16 02:00N 34°56' E 029°34'816.2
2018-Jun-16 01:30N 34°58' E 029°24'816.0
2018-Jun-16 00:59N 34°60' E 029°14'816.0
2018-Jun-16 00:30N 35°01' E 029°05'816.1
2018-Jun-15 23:59N 35°02' E 028°55'21715.9
2018-Jun-15 10:22N 35°46' E 024°35'715.9
2018-Jun-15 09:54N 35°48' E 024°26'71715.6
2018-Jun-13 11:57N 44°29' E 013°41'716.2
2018-Jun-13 11:30N 44°35' E 013°35'816.2
2018-Jun-13 11:00N 44°42' E 013°29'816.1
2018-Jun-13 10:30N 44°48' E 013°23'816.2
2018-Jun-13 10:00N 44°55' E 013°17'816.2
2018-Jun-13 09:30N 45°02' E 013°10'816.1
2018-Jun-13 09:00N 45°08' E 013°04'815.8
2018-Jun-13 08:30N 45°16' E 013°02'815.3
2018-Jun-13 08:00N 45°24' E 013°04'815.7
2018-Jun-13 07:30N 45°29' E 013°12'815.5
2018-Jun-13 07:00N 45°34' E 013°21'815.2
2018-Jun-13 06:30N 45°37' E 013°31'713.1
2018-Jun-13 06:00N 45°35' E 013°40'4 7.0
2018-Jun-13 05:29N 45°34' E 013°44'0 0.0
2018-Jun-13 04:59N 45°34' E 013°44'0 0.0
2018-Jun-13 04:29N 45°34' E 013°44'0 0.0
2018-Jun-13 03:59N 45°34' E 013°44'0 0.0
2018-Jun-13 03:29N 45°34' E 013°44'0 0.0
2018-Jun-13 02:53N 45°34' E 013°44'0 0.0
2018-Jun-13 02:29N 45°34' E 013°44'0 0.0
2018-Jun-13 01:59N 45°34' E 013°44'0 0.0
2018-Jun-13 01:29N 45°34' E 013°44'0 0.0
2018-Jun-13 00:56N 45°34' E 013°44'0 0.0
2018-Jun-13 00:29N 45°34' E 013°44'0 0.0
2018-Jun-12 23:56N 45°34' E 013°44'0 0.0
2018-Jun-12 23:29N 45°34' E 013°44'0 0.0
2018-Jun-12 22:56N 45°34' E 013°44'0 0.0
2018-Jun-12 22:23N 45°34' E 013°44'0 0.0
2018-Jun-12 21:59N 45°34' E 013°44'0 0.0
2018-Jun-12 21:29N 45°34' E 013°44'0 0.0
2018-Jun-12 20:59N 45°34' E 013°44'0 0.0
2018-Jun-12 20:23N 45°34' E 013°44'0 0.0
2018-Jun-12 19:59N 45°34' E 013°44'0 0.0
2018-Jun-12 19:26N 45°34' E 013°44'0 0.0
2018-Jun-12 18:59N 45°34' E 013°44'0 0.0
2018-Jun-12 18:26N 45°34' E 013°44'0 0.0
2018-Jun-12 17:56N 45°34' E 013°44'0 0.0
2018-Jun-12 17:29N 45°34' E 013°44'0 0.0
2018-Jun-12 16:59N 45°34' E 013°44'0 0.0
2018-Jun-12 16:23N 45°34' E 013°44'0 0.0
2018-Jun-12 15:59N 45°34' E 013°44'0 0.0
2018-Jun-12 15:29N 45°34' E 013°44'0 0.0
2018-Jun-12 14:59N 45°34' E 013°44'0 0.0
2018-Jun-12 14:29N 45°34' E 013°44'0 0.0
2018-Jun-12 13:59N 45°34' E 013°44'0 0.0
2018-Jun-12 13:29N 45°34' E 013°44'0 0.0
2018-Jun-12 12:59N 45°34' E 013°44'0 0.0
2018-Jun-12 12:29N 45°34' E 013°44'0 0.0
2018-Jun-12 11:53N 45°34' E 013°44'0 0.0
2018-Jun-12 11:29N 45°34' E 013°44'0 0.0
2018-Jun-12 10:59N 45°34' E 013°44'0 0.0
2018-Jun-12 10:29N 45°34' E 013°44'0 0.0
2018-Jun-12 09:56N 45°34' E 013°44'0 0.0
2018-Jun-12 09:29N 45°34' E 013°44'0 0.0
2018-Jun-12 08:56N 45°34' E 013°44'0 0.0
2018-Jun-12 08:29N 45°34' E 013°44'0 0.0
2018-Jun-12 07:59N 45°34' E 013°44'0 0.0
2018-Jun-12 07:26N 45°34' E 013°44'0 0.0
2018-Jun-12 06:59N 45°34' E 013°44'0 0.0
2018-Jun-12 06:26N 45°34' E 013°44'0 0.0
2018-Jun-12 05:59N 45°34' E 013°44'0 0.0
2018-Jun-12 05:23N 45°34' E 013°44'0 0.0
2018-Jun-12 04:56N 45°34' E 013°44'0 0.0
2018-Jun-12 04:29N 45°34' E 013°44'0 0.0
2018-Jun-12 03:59N 45°34' E 013°44'0 0.0
2018-Jun-12 03:29N 45°34' E 013°44'0 0.0
2018-Jun-12 02:50N 45°34' E 013°44'0 0.0
2018-Jun-12 02:29N 45°34' E 013°44'0 0.0
2018-Jun-12 01:56N 45°34' E 013°44'0 0.0
2018-Jun-12 01:26N 45°34' E 013°44'0 0.0
2018-Jun-12 00:53N 45°34' E 013°44'0 0.0
2018-Jun-12 00:26N 45°34' E 013°44'0 0.0
2018-Jun-11 23:56N 45°34' E 013°44'0 0.0
2018-Jun-11 23:26N 45°34' E 013°44'0 0.0
2018-Jun-11 22:59N 45°34' E 013°44'0 0.0
2018-Jun-11 22:29N 45°34' E 013°44'0 0.0
2018-Jun-11 21:53N 45°34' E 013°44'0 0.0
2018-Jun-11 21:29N 45°34' E 013°44'0 0.0
2018-Jun-11 20:53N 45°34' E 013°44'0 0.0
2018-Jun-11 20:26N 45°34' E 013°44'0 0.0
2018-Jun-11 19:56N 45°34' E 013°44'1 1.6
2018-Jun-11 19:30N 45°34' E 013°43'3 6.2
2018-Jun-11 19:00N 45°34' E 013°39'713.5
2018-Jun-11 18:30N 45°33' E 013°29'815.3
2018-Jun-11 18:00N 45°29' E 013°21'816.1
2018-Jun-11 17:30N 45°23' E 013°13'816.2
2018-Jun-11 17:00N 45°15' E 013°12'815.7
2018-Jun-11 16:30N 45°07' E 013°12'815.9
2018-Jun-11 16:00N 45°01' E 013°04'815.9
2018-Jun-11 15:30N 44°55' E 012°56'816.0
2018-Jun-11 15:00N 44°50' E 012°49'816.2
2018-Jun-11 14:30N 44°44' E 012°41'816.0
2018-Jun-11 14:00N 44°38' E 012°33'815.9
2018-Jun-11 13:30N 44°32' E 012°26'612.0
2018-Jun-11 13:00N 44°30' E 012°18'3 5.1
2018-Jun-11 12:29N 44°28' E 012°15'1 0.1
2018-Jun-11 00:01N 44°27' E 012°15'0 0.0
2018-Jun-10 23:58N 44°27' E 012°15'  

Dump ship's entire track history